Time;durP1;ratioP1;P1;durP2;ratioP2;P2;SDS_P1;SDS_P2;PMS_P1;PMS_P2;Temp;Humidity;BMP_temperature;BMP_pressure;BME280_temperature;BME280_humidity;BME280_pressure;Samples;Min_cycle;Max_cycle;Signal;HPM_P1;HPM_P2
2023/04/13 00:00:09;;;;;;;3.25;0.60;;;;;;;;;;5011730;28;20081;-72
2023/04/13 00:02:37;;;;;;;;;;;;;;;;;;4992256;28;20138;-71
2023/04/13 00:05:09;;;;;;;0.57;0.57;;;;;;;;;;5005845;28;20475;-71
2023/04/13 00:07:38;;;;;;;0.60;0.60;;;;;;;;;;5011417;28;20069;-71
2023/04/13 00:10:08;;;;;;;0.50;0.50;;;;;;;;;;5010068;28;20807;-71
2023/04/13 00:12:35;;;;;;;0.43;0.43;;;;;;;;;;5011248;28;20757;-71
2023/04/13 00:15:01;;;;;;;0.43;0.43;;;;;;;;;;5010634;28;20280;-72
2023/04/13 00:17:27;;;;;;;6.03;0.60;;;;;;;;;;5004231;28;20049;-70
2023/04/13 00:19:56;;;;;;;0.40;0.40;;;;;;;;;;5011373;28;20049;-69
2023/04/13 00:22:23;;;;;;;1.33;0.40;;;;;;;;;;5010887;28;20049;-68
2023/04/13 00:24:48;;;;;;;0.50;0.50;;;;;;;;;;5011082;28;20121;-69
2023/04/13 00:27:14;;;;;;;0.57;0.57;;;;;;;;;;5009423;28;20215;-69
2023/04/13 00:29:39;;;;;;;1.15;0.60;;;;;;;;;;5011239;28;20137;-69
2023/04/13 00:32:05;;;;;;;0.60;0.60;;;;;;;;;;5001127;28;20061;-69
2023/04/13 00:34:30;;;;;;;5.45;2.67;;;;;;;;;;4991251;28;20053;-69
2023/04/13 00:37:00;;;;;;;1.58;0.95;;;;;;;;;;4990460;28;20038;-68
2023/04/13 00:39:29;;;;;;;0.75;0.73;;;;;;;;;;4990597;28;20069;-70
2023/04/13 00:42:01;;;;;;;0.50;0.50;;;;;;;;;;4991127;28;20050;-69
2023/04/13 00:44:27;;;;;;;1.67;0.52;;;;;;;;;;4991025;28;20565;-69
2023/04/13 00:46:53;;;;;;;2.05;0.50;;;;;;;;;;4991062;28;20410;-68
2023/04/13 00:49:21;;;;;;;0.40;0.40;;;;;;;;;;5005720;28;20084;-68
2023/04/13 00:51:47;;;;;;;0.50;0.50;;;;;;;;;;5010350;28;20505;-69
2023/04/13 00:54:13;;;;;;;0.40;0.40;;;;;;;;;;5010412;28;20081;-68
2023/04/13 00:56:41;;;;;;;2.63;0.52;;;;;;;;;;5009189;28;20077;-72
2023/04/13 00:59:11;;;;;;;0.25;0.25;;;;;;;;;;5008945;28;20057;-70
2023/04/13 01:01:44;;;;;;;0.40;0.35;;;;;;;;;;5008585;28;20057;-69
2023/04/13 01:04:12;;;;;;;2.58;0.40;;;;;;;;;;5010464;28;20054;-70
2023/04/13 01:06:43;;;;;;;0.47;0.38;;;;;;;;;;5010395;28;20445;-67
2023/04/13 01:09:16;;;;;;;0.98;0.35;;;;;;;;;;5008659;28;20045;-68
2023/04/13 01:12:07;;;;;;;0.28;0.28;;;;;;;;;;5004953;28;20054;-70
2023/04/13 01:14:39;;;;;;;0.45;0.45;;;;;;;;;;5009580;28;20041;-71
2023/04/13 01:17:17;;;;;;;0.55;0.47;;;;;;;;;;5008088;28;20661;-69
2023/04/13 01:19:58;;;;;;;1.23;0.30;;;;;;;;;;5010409;28;20129;-69
2023/04/13 01:22:34;;;;;;;0.73;0.68;;;;;;;;;;5002172;28;20529;-68
2023/04/13 01:25:39;;;;;;;0.10;0.10;;;;;;;;;;4992062;28;20046;-70
2023/04/13 01:28:08;;;;;;;0.20;0.20;;;;;;;;;;4959117;28;20418;-70
2023/04/13 01:30:36;;;;;;;0.22;0.20;;;;;;;;;;4994498;28;20038;-67
2023/04/13 01:33:04;;;;;;;0.30;0.30;;;;;;;;;;4987099;28;20439;-69
2023/04/13 01:35:31;;;;;;;0.50;0.50;;;;;;;;;;5004731;28;20041;-71
2023/04/13 01:37:57;;;;;;;0.20;0.20;;;;;;;;;;4991634;28;20079;-70
2023/04/13 01:40:27;;;;;;;0.40;0.40;;;;;;;;;;4988486;28;20186;-68
2023/04/13 01:42:56;;;;;;;0.30;0.30;;;;;;;;;;4988936;28;20135;-69
2023/04/13 01:45:28;;;;;;;0.20;0.20;;;;;;;;;;4985413;28;20042;-68
2023/04/13 01:48:08;;;;;;;3.60;0.68;;;;;;;;;;4985569;28;20042;-69
2023/04/13 01:50:57;;;;;;;0.73;0.50;;;;;;;;;;4988705;28;20133;-69
2023/04/13 01:53:41;;;;;;;0.28;0.28;;;;;;;;;;4971402;28;20042;-69
2023/04/13 01:56:11;;;;;;;0.30;0.30;;;;;;;;;;4987849;28;20061;-70
2023/04/13 01:58:39;;;;;;;0.30;0.30;;;;;;;;;;4988489;28;20041;-68
2023/04/13 02:01:11;;;;;;;0.25;0.25;;;;;;;;;;4987961;28;20069;-69
2023/04/13 02:03:37;;;;;;;0.40;0.40;;;;;;;;;;4988334;28;20116;-69
2023/04/13 02:06:03;;;;;;;0.30;0.30;;;;;;;;;;5000179;28;20057;-68
2023/04/13 02:08:33;;;;;;;0.20;0.20;;;;;;;;;;5007027;28;20041;-71
2023/04/13 02:10:59;;;;;;;2.78;0.30;;;;;;;;;;5008035;28;20052;-69
2023/04/13 02:13:25;;;;;;;1.15;0.30;;;;;;;;;;5007169;28;20082;-68
2023/04/13 02:15:51;;;;;;;1.55;0.50;;;;;;;;;;5009193;28;20077;-72
2023/04/13 02:18:16;;;;;;;0.40;0.40;;;;;;;;;;5001042;28;20127;-68
2023/04/13 02:20:41;;;;;;;0.40;0.40;;;;;;;;;;5007865;28;20253;-68
2023/04/13 02:23:09;;;;;;;3.35;0.50;;;;;;;;;;5007277;28;20409;-68
2023/04/13 02:25:35;;;;;;;0.57;0.30;;;;;;;;;;5009311;28;20034;-70
2023/04/13 02:28:01;;;;;;;0.30;0.30;;;;;;;;;;5010220;28;20052;-71
2023/04/13 02:30:27;;;;;;;0.40;0.30;;;;;;;;;;5012011;28;20042;-68
2023/04/13 02:32:52;;;;;;;0.30;0.30;;;;;;;;;;5012933;28;20116;-68
2023/04/13 02:35:19;;;;;;;0.65;0.30;;;;;;;;;;5011161;28;20134;-68
2023/04/13 02:37:45;;;;;;;4.00;0.50;;;;;;;;;;5011995;28;20064;-69
2023/04/13 02:40:12;;;;;;;0.50;0.50;;;;;;;;;;4990982;28;20105;-68
2023/04/13 02:42:38;;;;;;;2.85;0.60;;;;;;;;;;4991790;28;20039;-68
2023/04/13 02:45:06;;;;;;;0.40;0.40;;;;;;;;;;4991751;28;20055;-69
2023/04/13 02:47:34;;;;;;;1.10;0.40;;;;;;;;;;4995537;28;20128;-70
2023/04/13 02:50:00;;;;;;;1.55;0.38;;;;;;;;;;5005588;28;20134;-72
2023/04/13 02:52:33;;;;;;;0.40;0.40;;;;;;;;;;5003135;28;20049;-67
2023/04/13 02:55:04;;;;;;;2.20;0.40;;;;;;;;;;5011180;28;20050;-68
2023/04/13 02:57:41;;;;;;;0.20;0.20;;;;;;;;;;4975178;28;20194;-67
2023/04/13 03:00:10;;;;;;;0.63;0.30;;;;;;;;;;4991602;28;20038;-68
2023/04/13 03:02:43;;;;;;;0.40;0.40;;;;;;;;;;4991427;28;20738;-67
2023/04/13 03:05:10;;;;;;;1.45;0.30;;;;;;;;;;4990637;28;20066;-70
2023/04/13 03:07:36;;;;;;;0.45;0.40;;;;;;;;;;4993023;28;20129;-69
2023/04/13 03:10:05;;;;;;;1.58;0.40;;;;;;;;;;4991869;28;20141;-67
2023/04/13 03:12:31;;;;;;;0.40;0.40;;;;;;;;;;4990637;28;20431;-67
2023/04/13 03:15:01;;;;;;;0.75;0.43;;;;;;;;;;4992281;28;20049;-68
2023/04/13 03:17:30;;;;;;;1.17;0.40;;;;;;;;;;4990931;28;20507;-70
2023/04/13 03:19:56;;;;;;;0.57;0.30;;;;;;;;;;4991505;28;20766;-67
2023/04/13 03:22:24;;;;;;;0.20;0.20;;;;;;;;;;4997407;28;20141;-68
2023/04/13 03:24:51;;;;;;;0.30;0.30;;;;;;;;;;4991100;28;20056;-67
2023/04/13 03:27:30;;;;;;;0.50;0.50;;;;;;;;;;4971292;28;20051;-69
2023/04/13 03:29:55;;;;;;;0.30;0.30;;;;;;;;;;4973100;28;20125;-67
2023/04/13 03:32:21;;;;;;;0.40;0.40;;;;;;;;;;4989819;28;20413;-68
2023/04/13 03:34:50;;;;;;;1.25;0.50;;;;;;;;;;4990280;28;20050;-68
2023/04/13 03:37:17;;;;;;;0.28;0.28;;;;;;;;;;4989210;28;20047;-68
2023/04/13 03:39:43;;;;;;;0.50;0.50;;;;;;;;;;4990320;28;20042;-68
2023/04/13 03:42:12;;;;;;;1.25;0.40;;;;;;;;;;4990927;28;20046;-68
2023/04/13 03:44:44;;;;;;;1.95;0.50;;;;;;;;;;4989541;28;20030;-67
2023/04/13 03:47:10;;;;;;;1.70;0.30;;;;;;;;;;4989825;28;20050;-68
2023/04/13 03:49:36;;;;;;;0.63;0.40;;;;;;;;;;4990993;28;20042;-67
2023/04/13 03:52:02;;;;;;;0.45;0.43;;;;;;;;;;4990662;28;20146;-68
2023/04/13 03:54:34;;;;;;;0.30;0.25;;;;;;;;;;4990626;28;20042;-70
2023/04/13 03:57:01;;;;;;;0.30;0.30;;;;;;;;;;4989931;28;20104;-71
2023/04/13 03:59:29;;;;;;;0.60;0.43;;;;;;;;;;4989990;28;20121;-67
2023/04/13 04:01:56;;;;;;;0.50;0.50;;;;;;;;;;4990456;28;20046;-69
2023/04/13 04:04:22;;;;;;;1.08;0.30;;;;;;;;;;4974335;28;20050;-70
2023/04/13 04:06:49;;;;;;;0.40;0.40;;;;;;;;;;4989796;28;20042;-68
2023/04/13 04:09:16;;;;;;;2.67;0.50;;;;;;;;;;4989845;28;20120;-68
2023/04/13 04:11:45;;;;;;;0.52;0.40;;;;;;;;;;4990262;28;20053;-68
2023/04/13 04:14:12;;;;;;;2.28;0.40;;;;;;;;;;4990284;28;20058;-67
2023/04/13 04:16:42;;;;;;;3.03;0.50;;;;;;;;;;4990198;28;20050;-70
2023/04/13 04:19:11;;;;;;;0.28;0.28;;;;;;;;;;4988995;28;20046;-68
2023/04/13 04:21:36;;;;;;;0.30;0.30;;;;;;;;;;4991329;28;20100;-69
2023/04/13 04:24:07;;;;;;;1.98;0.47;;;;;;;;;;4990443;28;20511;-70
2023/04/13 04:26:36;;;;;;;0.30;0.30;;;;;;;;;;4980624;28;20506;-67
2023/04/13 04:29:02;;;;;;;0.40;0.40;;;;;;;;;;4981285;28;20046;-69
2023/04/13 04:31:33;;;;;;;0.40;0.40;;;;;;;;;;4982532;28;20050;-67
2023/04/13 04:34:01;;;;;;;1.85;0.45;;;;;;;;;;4984030;28;20045;-69
2023/04/13 04:36:28;;;;;;;3.05;1.00;;;;;;;;;;4982559;28;20089;-67
2023/04/13 04:39:00;;;;;;;0.30;0.30;;;;;;;;;;4980067;28;20046;-70
2023/04/13 04:41:27;;;;;;;0.98;0.40;;;;;;;;;;5002215;28;20115;-67
2023/04/13 04:44:01;;;;;;;0.40;0.40;;;;;;;;;;4973792;28;20053;-70
2023/04/13 04:46:28;;;;;;;0.60;0.47;;;;;;;;;;4989917;28;20046;-67
2023/04/13 04:48:59;;;;;;;0.40;0.40;;;;;;;;;;4989909;28;20050;-67
2023/04/13 04:51:26;;;;;;;2.60;0.30;;;;;;;;;;4987296;28;20530;-67
2023/04/13 04:53:53;;;;;;;0.30;0.30;;;;;;;;;;4989210;28;20070;-67
2023/04/13 04:56:21;;;;;;;0.30;0.30;;;;;;;;;;4989973;28;20402;-67
2023/04/13 04:58:50;;;;;;;0.30;0.30;;;;;;;;;;4989544;28;20099;-67
2023/04/13 05:01:21;;;;;;;0.20;0.20;;;;;;;;;;4988143;28;20039;-68
2023/04/13 05:03:47;;;;;;;0.30;0.30;;;;;;;;;;4989055;28;20046;-70
2023/04/13 05:06:31;;;;;;;0.65;0.40;;;;;;;;;;4977425;28;20047;-67
2023/04/13 05:08:58;;;;;;;0.40;0.40;;;;;;;;;;5005778;28;20392;-67
2023/04/13 05:11:25;;;;;;;0.40;0.40;;;;;;;;;;4981678;28;20042;-70
2023/04/13 05:13:54;;;;;;;0.40;0.40;;;;;;;;;;4988098;28;20414;-69
2023/04/13 05:16:22;;;;;;;0.50;0.40;;;;;;;;;;4986811;28;20705;-71
2023/04/13 05:18:49;;;;;;;1.50;0.40;;;;;;;;;;4987588;28;20045;-71
2023/04/13 05:21:26;;;;;;;1.35;0.45;;;;;;;;;;4987104;28;20042;-68
2023/04/13 05:23:56;;;;;;;0.30;0.30;;;;;;;;;;4991994;28;20045;-68
2023/04/13 05:26:24;;;;;;;0.40;0.40;;;;;;;;;;4987678;28;20038;-68
2023/04/13 05:28:50;;;;;;;0.73;0.45;;;;;;;;;;4976957;28;20047;-68
2023/04/13 05:31:16;;;;;;;0.57;0.52;;;;;;;;;;4978387;28;20053;-69
2023/04/13 05:33:43;;;;;;;2.03;0.40;;;;;;;;;;4988487;28;20108;-72
2023/04/13 05:36:08;;;;;;;0.47;0.40;;;;;;;;;;4987812;28;20050;-67
2023/04/13 05:38:36;;;;;;;0.50;0.50;;;;;;;;;;4988863;28;20047;-69
2023/04/13 05:41:02;;;;;;;0.47;0.45;;;;;;;;;;4990116;28;20058;-68
2023/04/13 05:43:31;;;;;;;1.23;0.63;;;;;;;;;;4988163;28;20042;-70
2023/04/13 05:45:56;;;;;;;0.45;0.45;;;;;;;;;;4987775;28;20058;-68
2023/04/13 05:48:22;;;;;;;1.02;0.47;;;;;;;;;;4988691;28;20058;-69
2023/04/13 05:50:57;;;;;;;2.30;0.47;;;;;;;;;;4988703;28;20129;-68
2023/04/13 05:53:25;;;;;;;2.17;0.35;;;;;;;;;;4987752;28;20053;-68
2023/04/13 05:55:53;;;;;;;7.63;0.70;;;;;;;;;;4972610;28;20038;-69
2023/04/13 05:58:19;;;;;;;3.03;0.50;;;;;;;;;;4993233;28;20075;-72
2023/04/13 06:00:47;;;;;;;0.50;0.50;;;;;;;;;;4987870;28;20096;-70
2023/04/13 06:03:20;;;;;;;0.52;0.52;;;;;;;;;;4986065;28;20457;-69
2023/04/13 06:05:45;;;;;;;1.98;0.57;;;;;;;;;;4991913;28;20111;-70
2023/04/13 06:08:12;;;;;;;0.50;0.50;;;;;;;;;;5005411;28;20811;-70
2023/04/13 06:10:38;;;;;;;0.35;0.35;;;;;;;;;;5006069;28;20061;-70
2023/04/13 06:13:04;;;;;;;2.58;0.50;;;;;;;;;;5007269;28;20507;-70
2023/04/13 06:15:29;;;;;;;0.85;0.50;;;;;;;;;;5005918;28;20045;-70
2023/04/13 06:17:55;;;;;;;0.50;0.50;;;;;;;;;;4990600;28;20069;-70
2023/04/13 06:20:20;;;;;;;0.40;0.40;;;;;;;;;;4990361;28;20457;-70
2023/04/13 06:22:46;;;;;;;0.55;0.40;;;;;;;;;;4987961;28;20049;-70
2023/04/13 06:25:12;;;;;;;0.43;0.40;;;;;;;;;;4987588;28;20046;-71
2023/04/13 06:27:42;;;;;;;0.82;0.50;;;;;;;;;;4988440;28;20045;-70
2023/04/13 06:30:09;;;;;;;1.58;0.47;;;;;;;;;;4987684;28;20046;-70
2023/04/13 06:32:35;;;;;;;0.50;0.50;;;;;;;;;;4987960;28;20176;-70
2023/04/13 06:35:02;;;;;;;0.77;0.50;;;;;;;;;;4988321;28;20061;-70
2023/04/13 06:37:34;;;;;;;0.93;0.40;;;;;;;;;;4987672;28;20534;-70
2023/04/13 06:40:11;;;;;;;0.60;0.60;;;;;;;;;;4988495;28;20143;-70
2023/04/13 06:42:41;;;;;;;1.83;0.50;;;;;;;;;;4982813;28;20134;-70
2023/04/13 06:45:26;;;;;;;0.40;0.40;;;;;;;;;;4973564;28;20034;-70
2023/04/13 06:47:53;;;;;;;0.98;0.50;;;;;;;;;;5001723;28;20077;-70
2023/04/13 06:50:18;;;;;;;0.30;0.30;;;;;;;;;;4988249;28;20574;-70
2023/04/13 06:52:46;;;;;;;1.20;0.40;;;;;;;;;;4987090;28;20058;-70
2023/04/13 06:55:13;;;;;;;1.45;0.73;;;;;;;;;;4987467;28;20589;-70
2023/04/13 06:57:40;;;;;;;2.28;0.50;;;;;;;;;;4988200;28;20443;-70
2023/04/13 07:00:07;;;;;;;0.90;0.40;;;;;;;;;;4988081;28;20158;-70
2023/04/13 07:02:33;;;;;;;0.52;0.50;;;;;;;;;;4987008;28;20046;-70
2023/04/13 07:04:59;;;;;;;1.67;0.60;;;;;;;;;;4987669;28;20446;-70
2023/04/13 07:07:27;;;;;;;1.33;0.63;;;;;;;;;;4987462;28;20096;-70
2023/04/13 07:09:55;;;;;;;0.63;0.60;;;;;;;;;;4988077;28;20062;-70
2023/04/13 07:12:20;;;;;;;3.40;0.60;;;;;;;;;;4987792;28;20084;-70
2023/04/13 07:14:46;;;;;;;0.82;0.45;;;;;;;;;;4989637;28;20035;-70
2023/04/13 07:17:15;;;;;;;1.95;0.60;;;;;;;;;;4990744;28;20141;-70
2023/04/13 07:19:46;;;;;;;1.10;0.40;;;;;;;;;;4991531;28;20078;-70
2023/04/13 07:22:13;;;;;;;0.95;0.50;;;;;;;;;;4991275;28;20046;-70
2023/04/13 07:24:39;;;;;;;2.70;0.50;;;;;;;;;;4990569;28;20050;-70
2023/04/13 07:27:08;;;;;;;0.40;0.40;;;;;;;;;;4991131;28;20068;-70
2023/04/13 07:29:34;;;;;;;0.75;0.50;;;;;;;;;;4991159;28;20477;-70
2023/04/13 07:32:05;;;;;;;1.50;0.70;;;;;;;;;;4990836;28;20475;-70
2023/04/13 07:34:32;;;;;;;0.52;0.38;;;;;;;;;;4991444;28;20066;-70
2023/04/13 07:36:58;;;;;;;1.35;0.52;;;;;;;;;;4990027;28;20490;-70
2023/04/13 07:39:23;;;;;;;2.03;0.73;;;;;;;;;;4991942;28;20046;-70
2023/04/13 07:41:51;;;;;;;1.92;0.50;;;;;;;;;;4990707;28;20092;-70
2023/04/13 07:44:24;;;;;;;0.40;0.40;;;;;;;;;;4990860;28;20042;-70
2023/04/13 07:46:51;;;;;;;1.67;0.73;;;;;;;;;;4990042;28;20034;-70
2023/04/13 07:49:17;;;;;;;2.75;0.75;;;;;;;;;;4990619;28;20042;-70
2023/04/13 07:51:43;;;;;;;4.28;0.60;;;;;;;;;;4990465;28;20112;-69
2023/04/13 07:54:12;;;;;;;2.35;0.70;;;;;;;;;;4990833;28;20087;-69
2023/04/13 07:56:38;;;;;;;3.33;0.77;;;;;;;;;;4992491;28;20085;-70
2023/04/13 07:59:06;;;;;;;0.95;0.40;;;;;;;;;;4989763;28;20398;-70
2023/04/13 08:01:33;;;;;;;2.22;0.80;;;;;;;;;;4989788;28;20077;-69
2023/04/13 08:04:01;;;;;;;0.40;0.40;;;;;;;;;;4990547;28;20050;-70
2023/04/13 08:06:27;;;;;;;2.33;0.55;;;;;;;;;;5001310;28;20046;-72
2023/04/13 08:08:53;;;;;;;3.38;1.30;;;;;;;;;;5009373;28;20052;-70
2023/04/13 08:11:18;;;;;;;1.05;0.98;;;;;;;;;;4983940;28;20124;-72
2023/04/13 08:13:45;;;;;;;0.65;0.47;;;;;;;;;;4990270;28;20046;-70
2023/04/13 08:16:11;;;;;;;1.38;0.60;;;;;;;;;;4990171;28;20085;-71
2023/04/13 08:18:38;;;;;;;3.08;0.63;;;;;;;;;;4990542;28;20058;-70
2023/04/13 08:21:10;;;;;;;2.25;0.63;;;;;;;;;;4995100;28;20089;-71
2023/04/13 08:23:41;;;;;;;8.38;0.80;;;;;;;;;;5009536;28;20048;-71
2023/04/13 08:26:06;;;;;;;1.83;0.85;;;;;;;;;;5009830;28;20092;-71
2023/04/13 08:28:32;;;;;;;1.27;0.70;;;;;;;;;;5011948;28;20449;-71
2023/04/13 08:30:57;;;;;;;0.65;0.52;;;;;;;;;;5008559;28;20042;-71
2023/04/13 08:33:23;;;;;;;2.10;0.90;;;;;;;;;;5008720;28;20042;-71
2023/04/13 08:35:49;;;;;;;1.20;0.80;;;;;;;;;;5011502;28;20057;-71
2023/04/13 08:38:14;;;;;;;1.63;0.57;;;;;;;;;;5010109;28;20528;-72
2023/04/13 08:40:46;;;;;;;1.65;0.57;;;;;;;;;;5011473;28;20046;-71
2023/04/13 08:43:18;;;;;;;2.40;1.00;;;;;;;;;;5008778;28;20042;-71
2023/04/13 08:45:43;;;;;;;1.23;0.80;;;;;;;;;;5005976;28;20406;-70
2023/04/13 08:48:12;;;;;;;2.03;0.82;;;;;;;;;;4991150;28;20110;-71
2023/04/13 08:50:41;;;;;;;1.00;0.60;;;;;;;;;;4989787;28;20065;-71
2023/04/13 08:53:08;;;;;;;0.90;0.90;;;;;;;;;;5004252;28;20121;-71
2023/04/13 08:55:33;;;;;;;0.45;0.45;;;;;;;;;;5008597;28;20582;-71
2023/04/13 08:58:01;;;;;;;4.25;0.82;;;;;;;;;;5009437;28;20041;-71
2023/04/13 09:00:28;;;;;;;2.20;0.73;;;;;;;;;;5009042;28;20049;-71
2023/04/13 09:03:00;;;;;;;1.65;0.55;;;;;;;;;;5009008;28;20042;-70
2023/04/13 09:05:27;;;;;;;0.95;0.50;;;;;;;;;;4994804;28;20030;-70
2023/04/13 09:08:00;;;;;;;2.20;0.70;;;;;;;;;;4989383;28;20502;-70
2023/04/13 09:10:26;;;;;;;3.38;0.60;;;;;;;;;;4989582;28;20072;-70
2023/04/13 09:12:52;;;;;;;0.82;0.43;;;;;;;;;;4989019;28;20418;-71
2023/04/13 09:15:18;;;;;;;3.67;0.70;;;;;;;;;;4987717;28;20494;-71
2023/04/13 09:18:09;;;;;;;1.75;0.60;;;;;;;;;;4997412;28;20056;-71
2023/04/13 09:20:37;;;;;;;2.35;0.90;;;;;;;;;;4989517;28;20736;-71
2023/04/13 09:23:13;;;;;;;3.50;0.90;;;;;;;;;;4990326;28;20129;-71
2023/04/13 09:25:39;;;;;;;1.02;0.70;;;;;;;;;;5009349;28;20045;-71
2023/04/13 09:28:05;;;;;;;4.32;0.70;;;;;;;;;;5009791;28;20053;-71
2023/04/13 09:30:30;;;;;;;2.00;0.30;;;;;;;;;;5010007;28;20050;-71
2023/04/13 09:33:09;;;;;;;3.03;0.70;;;;;;;;;;5009663;28;20050;-71
2023/04/13 09:35:36;;;;;;;0.73;0.45;;;;;;;;;;4993035;28;20111;-71
2023/04/13 09:38:03;;;;;;;2.47;0.60;;;;;;;;;;5008827;28;20056;-71
2023/04/13 09:40:29;;;;;;;4.55;0.90;;;;;;;;;;5009885;28;20081;-71
2023/04/13 09:42:59;;;;;;;4.63;1.42;;;;;;;;;;5009840;28;20451;-70
2023/04/13 09:45:43;;;;;;;3.92;0.55;;;;;;;;;;5009039;28;20096;-71
2023/04/13 09:48:20;;;;;;;0.47;0.43;;;;;;;;;;5008981;28;20064;-70
2023/04/13 09:50:56;;;;;;;2.17;0.60;;;;;;;;;;5009711;28;20466;-71
2023/04/13 09:53:21;;;;;;;2.58;1.05;;;;;;;;;;5007974;28;20040;-70
2023/04/13 09:55:56;;;;;;;1.17;0.47;;;;;;;;;;5009585;28;20465;-72
2023/04/13 09:58:21;;;;;;;1.23;0.57;;;;;;;;;;5008788;28;20061;-70
2023/04/13 10:00:46;;;;;;;1.05;0.50;;;;;;;;;;5009427;28;20153;-70
2023/04/13 10:03:13;;;;;;;1.13;0.52;;;;;;;;;;5008519;28;20080;-71
2023/04/13 10:05:41;;;;;;;1.92;0.65;;;;;;;;;;5009427;28;20505;-70
2023/04/13 10:08:07;;;;;;;1.25;0.88;;;;;;;;;;5009443;28;20045;-70
2023/04/13 10:10:32;;;;;;;2.67;0.90;;;;;;;;;;5008609;28;20053;-70
2023/04/13 10:13:06;;;;;;;2.83;0.60;;;;;;;;;;5008790;28;20413;-70
2023/04/13 10:16:12;;;;;;;0.85;0.70;;;;;;;;;;5008788;28;20125;-70
2023/04/13 10:18:58;;;;;;;1.65;0.60;;;;;;;;;;5009409;28;20045;-70
2023/04/13 10:21:32;;;;;;;0.85;0.50;;;;;;;;;;5007735;28;20045;-70
2023/04/13 10:23:57;;;;;;;3.33;0.60;;;;;;;;;;5009063;28;20061;-70
2023/04/13 10:26:30;;;;;;;1.70;0.70;;;;;;;;;;5009559;28;20054;-70
2023/04/13 10:28:55;;;;;;;1.70;0.63;;;;;;;;;;5009242;28;20080;-70
2023/04/13 10:31:21;;;;;;;0.95;0.57;;;;;;;;;;5007631;28;20101;-70
2023/04/13 10:33:50;;;;;;;3.83;0.65;;;;;;;;;;5009125;28;20100;-70
2023/04/13 10:36:16;;;;;;;1.25;0.60;;;;;;;;;;5009196;28;20149;-70
2023/04/13 10:38:45;;;;;;;1.23;0.43;;;;;;;;;;5009516;28;20413;-70
2023/04/13 10:41:27;;;;;;;1.33;0.63;;;;;;;;;;5007694;28;20042;-71
2023/04/13 10:44:06;;;;;;;0.50;0.40;;;;;;;;;;5005281;28;20054;-70
2023/04/13 10:46:33;;;;;;;0.70;0.50;;;;;;;;;;4988320;28;20124;-70
2023/04/13 10:49:00;;;;;;;1.00;0.63;;;;;;;;;;4991735;28;20058;-70
2023/04/13 10:51:37;;;;;;;2.10;0.50;;;;;;;;;;4992571;28;20057;-70
2023/04/13 10:54:03;;;;;;;4.28;0.70;;;;;;;;;;5007221;28;20065;-70
2023/04/13 10:56:29;;;;;;;1.13;0.60;;;;;;;;;;5012856;28;20046;-70
2023/04/13 10:58:54;;;;;;;2.28;0.60;;;;;;;;;;5012832;28;20196;-70
2023/04/13 11:01:20;;;;;;;0.75;0.60;;;;;;;;;;5012273;28;20070;-70
2023/04/13 11:03:47;;;;;;;0.55;0.40;;;;;;;;;;5011525;28;20116;-70
2023/04/13 11:06:14;;;;;;;1.13;0.55;;;;;;;;;;5012672;28;20056;-70
2023/04/13 11:08:41;;;;;;;1.67;0.77;;;;;;;;;;5012703;28;20046;-70
2023/04/13 11:11:06;;;;;;;1.65;0.80;;;;;;;;;;5012857;28;20049;-70
2023/04/13 11:13:32;;;;;;;2.92;0.60;;;;;;;;;;5011818;28;20061;-70
2023/04/13 11:16:04;;;;;;;0.98;0.60;;;;;;;;;;5011400;28;20052;-70
2023/04/13 11:18:30;;;;;;;0.47;0.47;;;;;;;;;;5012612;28;20095;-70
2023/04/13 11:20:56;;;;;;;1.63;0.73;;;;;;;;;;5012479;28;20514;-70
2023/04/13 11:23:22;;;;;;;1.20;0.60;;;;;;;;;;5011653;28;20049;-70
2023/04/13 11:25:51;;;;;;;0.35;0.35;;;;;;;;;;5011540;28;20049;-70
2023/04/13 11:28:17;;;;;;;1.05;0.60;;;;;;;;;;5011940;28;20037;-70
2023/04/13 11:30:56;;;;;;;1.30;0.40;;;;;;;;;;5012149;28;20422;-70
2023/04/13 11:33:29;;;;;;;3.03;0.80;;;;;;;;;;5011450;28;20148;-70
2023/04/13 11:35:58;;;;;;;2.17;1.00;;;;;;;;;;5012179;28;20058;-70
2023/04/13 11:38:25;;;;;;;2.72;0.50;;;;;;;;;;5011004;28;20743;-70
2023/04/13 11:40:51;;;;;;;4.70;0.80;;;;;;;;;;5012097;28;20130;-70
2023/04/13 11:43:18;;;;;;;1.98;0.80;;;;;;;;;;5011278;28;20069;-71
2023/04/13 11:45:46;;;;;;;2.88;0.70;;;;;;;;;;5012452;28;20044;-70
2023/04/13 11:48:12;;;;;;;1.50;0.80;;;;;;;;;;5011084;28;20183;-70
2023/04/13 11:50:38;;;;;;;2.42;0.77;;;;;;;;;;5011800;28;20083;-69
2023/04/13 11:53:04;;;;;;;1.58;0.80;;;;;;;;;;5010313;28;20038;-72
2023/04/13 11:55:31;;;;;;;2.47;0.73;;;;;;;;;;5011388;28;20060;-70
2023/04/13 11:57:57;;;;;;;1.15;0.75;;;;;;;;;;5011889;28;20514;-70
2023/04/13 12:00:25;;;;;;;3.13;1.10;;;;;;;;;;5010070;28;20057;-70
2023/04/13 12:02:52;;;;;;;2.35;0.93;;;;;;;;;;5010952;28;20128;-69
2023/04/13 12:05:25;;;;;;;1.52;0.60;;;;;;;;;;5010806;28;20529;-72
2023/04/13 12:07:53;;;;;;;3.13;0.77;;;;;;;;;;5011648;28;20133;-72
2023/04/13 12:10:26;;;;;;;1.27;0.60;;;;;;;;;;5010431;28;20045;-69
2023/04/13 12:13:02;;;;;;;4.53;0.93;;;;;;;;;;5010783;28;20052;-72
2023/04/13 12:15:30;;;;;;;2.40;0.82;;;;;;;;;;5011148;28;20128;-69
2023/04/13 12:17:57;;;;;;;3.50;0.70;;;;;;;;;;5011520;28;20053;-68
2023/04/13 12:20:24;;;;;;;2.95;0.73;;;;;;;;;;5010421;28;20045;-69
2023/04/13 12:22:50;;;;;;;1.63;0.77;;;;;;;;;;5010854;28;20498;-69
2023/04/13 12:25:18;;;;;;;2.47;0.60;;;;;;;;;;5010481;28;20145;-69
2023/04/13 12:27:44;;;;;;;1.63;0.70;;;;;;;;;;5011159;28;20123;-69
2023/04/13 12:30:14;;;;;;;2.08;0.70;;;;;;;;;;5010996;28;20471;-69
2023/04/13 12:32:45;;;;;;;1.85;0.70;;;;;;;;;;5009919;28;20133;-69
2023/04/13 12:35:12;;;;;;;2.83;1.00;;;;;;;;;;5009486;28;20034;-69
2023/04/13 12:37:41;;;;;;;2.38;1.00;;;;;;;;;;4991209;28;20046;-69
2023/04/13 12:40:11;;;;;;;1.25;0.85;;;;;;;;;;4991225;28;20046;-71
2023/04/13 12:42:43;;;;;;;2.45;0.77;;;;;;;;;;4990619;28;20627;-70
2023/04/13 12:45:09;;;;;;;3.97;0.80;;;;;;;;;;4990888;28;20047;-69
2023/04/13 12:47:35;;;;;;;4.45;0.73;;;;;;;;;;4990675;28;20184;-70
2023/04/13 12:50:03;;;;;;;1.10;0.80;;;;;;;;;;4991278;28;20129;-69
2023/04/13 12:52:31;;;;;;;2.75;0.98;;;;;;;;;;4991321;28;20162;-69
2023/04/13 12:54:58;;;;;;;0.52;0.50;;;;;;;;;;4988702;28;20079;-69
2023/04/13 12:57:27;;;;;;;1.70;0.93;;;;;;;;;;4990590;28;20046;-69
2023/04/13 12:59:54;;;;;;;1.75;0.65;;;;;;;;;;4991164;28;20104;-68
2023/04/13 13:02:21;;;;;;;0.77;0.73;;;;;;;;;;4990758;28;20522;-69
2023/04/13 13:04:46;;;;;;;2.20;0.80;;;;;;;;;;5003008;28;20038;-69
2023/04/13 13:07:12;;;;;;;2.13;0.80;;;;;;;;;;5009778;28;20046;-71
2023/04/13 13:09:37;;;;;;;0.90;0.75;;;;;;;;;;5010646;28;20056;-68
2023/04/13 13:12:03;;;;;;;3.40;0.90;;;;;;;;;;5009490;28;20045;-70
2023/04/13 13:14:30;;;;;;;3.80;1.25;;;;;;;;;;5008928;28;20124;-69
2023/04/13 13:16:55;;;;;;;2.95;0.90;;;;;;;;;;5000660;28;20117;-69
2023/04/13 13:19:20;;;;;;;1.63;0.77;;;;;;;;;;4989946;28;20137;-69
2023/04/13 13:21:46;;;;;;;1.00;0.68;;;;;;;;;;4990398;28;20046;-68
2023/04/13 13:24:11;;;;;;;1.05;0.75;;;;;;;;;;4990286;28;20053;-70
2023/04/13 13:26:36;;;;;;;2.85;1.25;;;;;;;;;;4989595;28;20038;-69
2023/04/13 13:29:02;;;;;;;0.95;0.60;;;;;;;;;;4990233;28;20426;-70
2023/04/13 13:31:28;;;;;;;4.55;0.80;;;;;;;;;;4989555;28;20050;-68
2023/04/13 13:33:54;;;;;;;1.70;0.50;;;;;;;;;;4990460;28;20046;-69
2023/04/13 13:36:19;;;;;;;1.70;0.70;;;;;;;;;;4990098;28;20061;-68
2023/04/13 13:38:48;;;;;;;2.20;0.68;;;;;;;;;;5000814;28;20037;-69
2023/04/13 13:41:13;;;;;;;0.88;0.60;;;;;;;;;;5009012;28;20037;-69
2023/04/13 13:43:39;;;;;;;2.13;0.82;;;;;;;;;;5009624;28;20100;-68
2023/04/13 13:46:05;;;;;;;4.20;0.80;;;;;;;;;;5009679;28;20052;-69
2023/04/13 13:48:31;;;;;;;4.30;1.00;;;;;;;;;;5007564;28;20050;-69
2023/04/13 13:51:07;;;;;;;1.92;0.85;;;;;;;;;;5008056;28;20152;-69
2023/04/13 13:53:32;;;;;;;3.13;1.20;;;;;;;;;;5008259;28;20489;-69
2023/04/13 13:55:57;;;;;;;3.55;1.08;;;;;;;;;;5009860;28;20053;-69
2023/04/13 13:58:23;;;;;;;3.40;0.57;;;;;;;;;;5009991;28;20595;-70
2023/04/13 14:00:49;;;;;;;1.83;1.02;;;;;;;;;;5007309;28;20061;-69
2023/04/13 14:03:15;;;;;;;3.90;1.10;;;;;;;;;;5008795;28;20050;-71
2023/04/13 14:05:42;;;;;;;2.60;1.35;;;;;;;;;;5009478;28;20140;-71
2023/04/13 14:08:08;;;;;;;1.30;0.65;;;;;;;;;;5009777;28;20049;-70
2023/04/13 14:10:36;;;;;;;2.45;1.00;;;;;;;;;;5008552;28;20070;-67
2023/04/13 14:13:02;;;;;;;0.95;0.70;;;;;;;;;;5008866;28;20045;-68
2023/04/13 14:15:27;;;;;;;2.90;1.50;;;;;;;;;;5008862;28;20041;-69
2023/04/13 14:17:52;;;;;;;3.63;1.00;;;;;;;;;;5009649;28;20061;-69
2023/04/13 14:20:18;;;;;;;6.15;1.33;;;;;;;;;;5009399;28;20069;-69
2023/04/13 14:22:43;;;;;;;1.58;1.33;;;;;;;;;;5010088;28;20036;-69
2023/04/13 14:25:09;;;;;;;1.70;0.80;;;;;;;;;;5013112;28;20648;-71
2023/04/13 14:27:35;;;;;;;0.50;0.50;;;;;;;;;;5013142;28;20076;-71
2023/04/13 14:30:01;;;;;;;0.95;0.57;;;;;;;;;;5013655;28;20101;-69
2023/04/13 14:32:27;;;;;;;1.42;0.60;;;;;;;;;;5012204;28;20126;-68
2023/04/13 14:34:54;;;;;;;2.10;0.80;;;;;;;;;;5012879;28;20061;-68
2023/04/13 14:37:22;;;;;;;4.07;0.80;;;;;;;;;;5012611;28;20053;-69
2023/04/13 14:39:47;;;;;;;3.05;0.70;;;;;;;;;;5013277;28;20104;-69
2023/04/13 14:42:13;;;;;;;4.70;1.15;;;;;;;;;;5012849;28;20048;-72
2023/04/13 14:44:38;;;;;;;1.92;0.93;;;;;;;;;;5011295;28;20061;-70
2023/04/13 14:47:05;;;;;;;2.78;0.90;;;;;;;;;;5013277;28;20050;-72
2023/04/13 14:49:30;;;;;;;3.17;1.15;;;;;;;;;;5012508;28;20046;-68